Industrial Montana, Puerto Rico
Current Conditions -  °F | °C
As of 6:50 AM on Monday 22 Dec 2014 (Local Time) from TJBQ Reporting Station
Clear Clear  
Wind Chill: 68°   Ceiling: Unl
Heat Index: 68°   Visibility: 10mi
Dew Point: 64°   Wind: 5mph
Humidity: 88%   Direction: 120°ESE
Pressure: 30.05"   Gusts: NA
Location:  18.4409°N, 67.1508°W
Report Text: TJBQ 221050Z 12004KT 10SM SKC 20/18 A3005 RMK RWY 8 ATIS Q
Loading
Personal Weather Stations






























Interactive Weather Map New forecast layout! Learn more

10-Day Weather Forecast

Advertisements
Track Severe Weather on mobile